Time;durP1;ratioP1;P1;durP2;ratioP2;P2;SDS_P1;SDS_P2;PMS_P1;PMS_P2;Temp;Humidity;BMP_temperature;BMP_pressure;BME280_temperature;BME280_humidity;BME280_pressure;Samples;Min_cycle;Max_cycle;Signal;HPM_P1;HPM_P2
2021/09/29 00:00:49;;;;;;;15.93;12.02;;;;;;;;;;143728;564;46917;-55
2021/09/29 00:03:16;;;;;;;13.07;10.38;;;;;;;;;;143729;573;46012;-55
2021/09/29 00:05:44;;;;;;;15.88;13.35;;;;;;;;;;143730;585;46020;-55
2021/09/29 00:08:11;;;;;;;15.98;13.65;;;;;;;;;;143730;615;46023;-55
2021/09/29 00:10:40;;;;;;;12.63;10.05;;;;;;;;;;143730;618;46020;-55
2021/09/29 00:13:07;;;;;;;13.52;12.10;;;;;;;;;;143728;564;46012;-55
2021/09/29 00:15:35;;;;;;;15.60;12.55;;;;;;;;;;143735;685;45045;-55
2021/09/29 00:18:02;;;;;;;13.95;12.37;;;;;;;;;;143731;575;46020;-55
2021/09/29 00:20:30;;;;;;;12.73;11.35;;;;;;;;;;143728;621;46916;-55
2021/09/29 00:22:57;;;;;;;17.42;12.48;;;;;;;;;;143730;564;45909;-55
2021/09/29 00:25:24;;;;;;;12.95;10.90;;;;;;;;;;143732;646;45021;-55
2021/09/29 00:27:51;;;;;;;15.27;12.02;;;;;;;;;;143732;743;46021;-55
2021/09/29 00:30:19;;;;;;;14.85;11.48;;;;;;;;;;143729;678;46012;-55
2021/09/29 00:32:46;;;;;;;11.20;10.00;;;;;;;;;;143728;611;46012;-55
2021/09/29 00:35:15;;;;;;;12.43;9.75;;;;;;;;;;143733;711;45021;-55
2021/09/29 00:37:42;;;;;;;10.73;9.50;;;;;;;;;;143734;570;46020;-55
2021/09/29 00:40:10;;;;;;;12.52;9.82;;;;;;;;;;143731;573;46012;-55
2021/09/29 00:42:38;;;;;;;17.12;10.65;;;;;;;;;;143730;595;45910;-55
2021/09/29 00:45:06;;;;;;;10.77;9.68;;;;;;;;;;143736;564;45021;-55
2021/09/29 00:47:33;;;;;;;15.05;10.77;;;;;;;;;;143732;569;47020;-55
2021/09/29 00:50:01;;;;;;;11.65;9.70;;;;;;;;;;143729;588;46915;-55
2021/09/29 00:52:29;;;;;;;10.27;9.23;;;;;;;;;;143729;570;45911;-55
2021/09/29 00:54:57;;;;;;;12.30;10.98;;;;;;;;;;143734;696;46020;-56
2021/09/29 00:57:24;;;;;;;11.43;9.32;;;;;;;;;;143729;565;47020;-55
2021/09/29 00:59:51;;;;;;;11.10;9.55;;;;;;;;;;143728;613;46013;-55
2021/09/29 01:02:20;;;;;;;15.10;11.45;;;;;;;;;;143729;589;46012;-55
2021/09/29 01:04:48;;;;;;;14.35;11.27;;;;;;;;;;143736;574;45030;-55
2021/09/29 01:07:27;;;;;;;15.40;10.38;;;;;;;;;;143731;605;46021;-56
2021/09/29 01:10:24;;;;;;;14.73;11.02;;;;;;;;;;143726;610;46858;-55
2021/09/29 01:13:26;;;;;;;11.02;9.80;;;;;;;;;;143730;583;45909;-55
2021/09/29 01:16:00;;;;;;;13.52;12.10;;;;;;;;;;143736;575;46010;-55
2021/09/29 01:18:30;;;;;;;13.45;9.68;;;;;;;;;;143732;621;46022;-55
2021/09/29 01:21:02;;;;;;;15.35;12.30;;;;;;;;;;143728;580;46021;-55
2021/09/29 01:24:01;;;;;;;14.75;12.07;;;;;;;;;;143731;599;45911;-56
2021/09/29 01:26:35;;;;;;;15.70;13.55;;;;;;;;;;143734;569;45022;-55
2021/09/29 01:29:05;;;;;;;16.98;11.45;;;;;;;;;;143731;589;46020;-55
2021/09/29 01:31:33;;;;;;;11.60;10.32;;;;;;;;;;143732;578;46020;-56
2021/09/29 01:34:01;;;;;;;14.63;10.90;;;;;;;;;;143729;569;45910;-55
2021/09/29 01:36:28;;;;;;;16.30;11.18;;;;;;;;;;143732;610;45021;-55
2021/09/29 01:38:58;;;;;;;15.13;11.20;;;;;;;;;;143731;649;47020;-55
2021/09/29 01:41:30;;;;;;;15.90;11.85;;;;;;;;;;143730;564;46021;-55
2021/09/29 01:43:58;;;;;;;13.62;10.50;;;;;;;;;;143730;621;46012;-55
2021/09/29 01:46:26;;;;;;;14.20;11.10;;;;;;;;;;143737;650;45020;-55
2021/09/29 01:49:36;;;;;;;15.00;12.93;;;;;;;;;;143733;606;46022;-55
2021/09/29 01:52:07;;;;;;;12.85;11.55;;;;;;;;;;143729;569;46012;-55
2021/09/29 01:54:39;;;;;;;15.13;12.00;;;;;;;;;;143733;616;45911;-55
2021/09/29 01:57:07;;;;;;;11.90;10.68;;;;;;;;;;143734;667;45026;-55
2021/09/29 01:59:34;;;;;;;14.68;11.57;;;;;;;;;;143731;616;46023;-56
2021/09/29 02:02:01;;;;;;;13.93;12.40;;;;;;;;;;143728;569;46012;-55
2021/09/29 02:04:28;;;;;;;16.20;13.73;;;;;;;;;;143729;758;46012;-55
2021/09/29 02:06:57;;;;;;;13.43;12.00;;;;;;;;;;143730;629;46021;-55
2021/09/29 02:09:26;;;;;;;14.23;11.10;;;;;;;;;;143732;695;46020;-55
2021/09/29 02:11:54;;;;;;;13.07;11.60;;;;;;;;;;143728;812;46020;-55
2021/09/29 02:14:22;;;;;;;13.02;11.68;;;;;;;;;;143728;565;45911;-55
2021/09/29 02:16:52;;;;;;;15.70;13.30;;;;;;;;;;143737;637;45028;-55
2021/09/29 02:19:20;;;;;;;11.23;10.02;;;;;;;;;;143733;603;46021;-55
2021/09/29 02:21:46;;;;;;;12.93;11.00;;;;;;;;;;143732;625;46020;-55
2021/09/29 02:24:13;;;;;;;17.65;13.73;;;;;;;;;;143729;599;45911;-55
2021/09/29 02:26:40;;;;;;;16.48;14.35;;;;;;;;;;143734;598;46020;-55
2021/09/29 02:29:10;;;;;;;17.05;15.00;;;;;;;;;;143732;565;46020;-55
2021/09/29 02:31:37;;;;;;;18.27;16.40;;;;;;;;;;143729;592;46020;-55
2021/09/29 02:34:04;;;;;;;18.92;16.80;;;;;;;;;;143729;569;45911;-55
2021/09/29 02:36:32;;;;;;;20.35;14.13;;;;;;;;;;143735;576;45021;-55
2021/09/29 02:38:58;;;;;;;11.75;10.52;;;;;;;;;;143732;585;46020;-55
2021/09/29 02:41:27;;;;;;;13.82;12.43;;;;;;;;;;143729;635;46020;-56
2021/09/29 02:43:54;;;;;;;15.10;12.75;;;;;;;;;;143726;600;46020;-55
2021/09/29 02:46:22;;;;;;;22.37;15.38;;;;;;;;;;143733;630;46020;-55
2021/09/29 02:48:48;;;;;;;15.80;12.02;;;;;;;;;;143730;835;46022;-55
2021/09/29 02:51:15;;;;;;;12.30;9.98;;;;;;;;;;143727;608;46021;-55
2021/09/29 02:53:42;;;;;;;13.50;11.55;;;;;;;;;;143730;593;45912;-55
2021/09/29 02:56:10;;;;;;;18.30;14.57;;;;;;;;;;143734;610;45021;-55
2021/09/29 02:58:36;;;;;;;13.23;10.90;;;;;;;;;;143733;749;46020;-55
2021/09/29 03:01:04;;;;;;;12.65;11.35;;;;;;;;;;143728;569;46020;-55
2021/09/29 03:03:32;;;;;;;16.75;13.85;;;;;;;;;;143729;637;45911;-56
2021/09/29 03:05:59;;;;;;;23.25;14.98;;;;;;;;;;143737;589;45025;-55
2021/09/29 03:08:26;;;;;;;16.30;13.68;;;;;;;;;;143730;599;46020;-55
2021/09/29 03:10:53;;;;;;;19.92;16.90;;;;;;;;;;143728;617;46917;-55
2021/09/29 03:13:20;;;;;;;16.12;13.73;;;;;;;;;;143727;599;45911;-55
2021/09/29 03:15:47;;;;;;;13.98;12.45;;;;;;;;;;143730;566;45021;-55
2021/09/29 03:18:14;;;;;;;25.48;20.60;;;;;;;;;;143727;588;46020;-55
2021/09/29 03:20:41;;;;;;;21.20;17.55;;;;;;;;;;143726;610;46021;-55
2021/09/29 03:23:09;;;;;;;25.67;21.02;;;;;;;;;;143729;622;45911;-55
2021/09/29 03:25:36;;;;;;;19.80;16.80;;;;;;;;;;143734;575;45025;-55
2021/09/29 03:28:03;;;;;;;21.08;18.05;;;;;;;;;;143730;620;46023;-55
2021/09/29 03:30:31;;;;;;;15.35;12.37;;;;;;;;;;143728;564;46020;-55
2021/09/29 03:32:58;;;;;;;15.00;12.93;;;;;;;;;;143727;572;45911;-55
2021/09/29 03:35:25;;;;;;;15.25;13.65;;;;;;;;;;143727;585;46021;-55
2021/09/29 03:37:52;;;;;;;18.08;15.45;;;;;;;;;;143730;606;46022;-55
2021/09/29 03:40:19;;;;;;;25.73;21.65;;;;;;;;;;143725;725;46917;-55
2021/09/29 03:42:46;;;;;;;42.83;36.85;;;;;;;;;;143727;612;45911;-55
2021/09/29 03:45:14;;;;;;;31.73;28.27;;;;;;;;;;143728;579;46010;-56
2021/09/29 03:47:42;;;;;;;33.45;29.23;;;;;;;;;;143726;593;46022;-55
2021/09/29 03:50:10;;;;;;;50.35;42.42;;;;;;;;;;143725;582;46021;-56
2021/09/29 03:52:38;;;;;;;44.85;38.40;;;;;;;;;;143727;755;46012;-56
2021/09/29 03:55:05;;;;;;;30.70;24.87;;;;;;;;;;143729;592;46020;-55
2021/09/29 03:57:34;;;;;;;32.05;26.45;;;;;;;;;;143727;580;46021;-55
2021/09/29 04:00:01;;;;;;;22.60;20.17;;;;;;;;;;143727;566;46020;-56
2021/09/29 04:02:29;;;;;;;25.65;21.55;;;;;;;;;;143724;564;46020;-56
2021/09/29 04:04:56;;;;;;;28.90;23.33;;;;;;;;;;143730;570;45021;-55
2021/09/29 04:07:23;;;;;;;17.77;15.30;;;;;;;;;;143726;586;46022;-55
2021/09/29 04:09:50;;;;;;;26.23;18.67;;;;;;;;;;143727;585;46020;-56
2021/09/29 04:12:17;;;;;;;23.75;18.08;;;;;;;;;;143727;589;46013;-56
2021/09/29 04:14:44;;;;;;;27.42;16.77;;;;;;;;;;143734;568;45020;-56
2021/09/29 04:17:11;;;;;;;21.15;18.50;;;;;;;;;;143725;569;47020;-56
2021/09/29 04:19:38;;;;;;;25.17;21.25;;;;;;;;;;143726;591;46013;-55
2021/09/29 04:22:10;;;;;;;38.50;33.58;;;;;;;;;;143728;704;45911;-55
2021/09/29 04:24:41;;;;;;;39.47;35.17;;;;;;;;;;143729;569;46020;-55
2021/09/29 04:27:09;;;;;;;30.15;26.92;;;;;;;;;;143729;579;46022;-56
2021/09/29 04:29:37;;;;;;;27.37;23.65;;;;;;;;;;143726;637;46012;-56
2021/09/29 04:32:08;;;;;;;25.80;20.35;;;;;;;;;;143726;567;46020;-55
2021/09/29 04:34:35;;;;;;;30.50;22.42;;;;;;;;;;143731;565;46012;-55
2021/09/29 04:37:02;;;;;;;22.65;20.12;;;;;;;;;;143729;661;46022;-55
2021/09/29 04:39:29;;;;;;;22.87;20.35;;;;;;;;;;143725;612;46917;-55
2021/09/29 04:41:56;;;;;;;28.20;21.85;;;;;;;;;;143727;760;46013;-55
2021/09/29 04:44:23;;;;;;;22.98;20.50;;;;;;;;;;143729;564;45021;-55
2021/09/29 04:46:50;;;;;;;22.67;20.23;;;;;;;;;;143721;575;47012;-56
2021/09/29 04:49:17;;;;;;;25.80;20.73;;;;;;;;;;143728;591;46917;-56
2021/09/29 04:51:44;;;;;;;26.27;19.67;;;;;;;;;;143727;585;45910;-56
2021/09/29 04:54:11;;;;;;;24.85;21.20;;;;;;;;;;143732;620;45020;-55
2021/09/29 04:56:38;;;;;;;24.15;21.17;;;;;;;;;;143727;587;46021;-56
2021/09/29 04:59:06;;;;;;;29.45;22.10;;;;;;;;;;143727;791;46020;-55
2021/09/29 05:01:35;;;;;;;24.95;20.92;;;;;;;;;;143729;631;46012;-55
2021/09/29 05:04:02;;;;;;;25.75;22.77;;;;;;;;;;143728;722;46021;-55
2021/09/29 05:06:29;;;;;;;30.65;23.52;;;;;;;;;;143726;581;47020;-55
2021/09/29 05:08:58;;;;;;;25.50;20.55;;;;;;;;;;143726;645;46012;-55
2021/09/29 05:11:29;;;;;;;24.83;21.60;;;;;;;;;;143727;645;45911;-55
2021/09/29 05:13:57;;;;;;;31.17;24.85;;;;;;;;;;143732;569;45020;-55
2021/09/29 05:16:24;;;;;;;31.45;25.73;;;;;;;;;;143729;733;46020;-55
2021/09/29 05:18:50;;;;;;;39.70;32.00;;;;;;;;;;143727;753;46021;-55
2021/09/29 05:21:18;;;;;;;27.87;24.23;;;;;;;;;;143726;603;45911;-55
2021/09/29 05:23:45;;;;;;;28.30;25.23;;;;;;;;;;143735;721;45020;-55
2021/09/29 05:26:12;;;;;;;35.65;30.77;;;;;;;;;;143726;712;46022;-55
2021/09/29 05:28:42;;;;;;;29.23;21.58;;;;;;;;;;143725;596;46020;-55
2021/09/29 05:31:09;;;;;;;39.88;30.67;;;;;;;;;;143728;569;45911;-55
2021/09/29 05:33:36;;;;;;;36.28;29.08;;;;;;;;;;143728;580;46020;-55
2021/09/29 05:36:02;;;;;;;32.30;27.55;;;;;;;;;;143726;575;46020;-55
2021/09/29 05:38:29;;;;;;;31.20;26.55;;;;;;;;;;143725;583;46020;-55
2021/09/29 05:40:57;;;;;;;36.75;25.98;;;;;;;;;;143728;575;45911;-55
2021/09/29 05:43:24;;;;;;;30.25;25.17;;;;;;;;;;143729;565;45023;-55
2021/09/29 05:45:52;;;;;;;26.48;21.70;;;;;;;;;;143728;658;46020;-55
2021/09/29 05:48:20;;;;;;;23.58;19.73;;;;;;;;;;143725;600;46021;-55
2021/09/29 05:50:47;;;;;;;27.08;22.33;;;;;;;;;;143728;661;45911;-55
2021/09/29 05:53:14;;;;;;;21.85;18.80;;;;;;;;;;143730;728;45025;-55
2021/09/29 05:55:41;;;;;;;29.12;25.95;;;;;;;;;;143724;587;47021;-55
2021/09/29 05:58:08;;;;;;;27.50;21.90;;;;;;;;;;143727;585;46918;-55
2021/09/29 06:00:35;;;;;;;32.40;25.52;;;;;;;;;;143727;583;46012;-54
2021/09/29 06:03:02;;;;;;;28.35;25.15;;;;;;;;;;143728;631;45021;-55
2021/09/29 06:05:29;;;;;;;25.25;22.67;;;;;;;;;;143727;585;46021;-54
2021/09/29 06:07:56;;;;;;;21.35;19.17;;;;;;;;;;143725;571;46020;-54
2021/09/29 06:10:23;;;;;;;24.65;20.62;;;;;;;;;;143727;582;45911;-55
2021/09/29 06:12:50;;;;;;;23.38;20.62;;;;;;;;;;143725;622;48021;-55
2021/09/29 06:15:24;;;;;;;27.42;22.80;;;;;;;;;;143730;579;46020;-55
2021/09/29 06:17:58;;;;;;;25.15;20.70;;;;;;;;;;143725;615;46917;-55
2021/09/29 06:20:27;;;;;;;24.73;21.12;;;;;;;;;;143728;588;45911;-55
2021/09/29 06:22:55;;;;;;;33.63;23.23;;;;;;;;;;143731;719;46020;-55
2021/09/29 06:25:22;;;;;;;25.37;19.20;;;;;;;;;;143730;614;46021;-55
2021/09/29 06:27:50;;;;;;;28.50;18.70;;;;;;;;;;143726;612;46020;-55
2021/09/29 06:30:17;;;;;;;21.37;17.98;;;;;;;;;;143727;592;45911;-55
2021/09/29 06:32:45;;;;;;;30.25;19.92;;;;;;;;;;143731;697;46020;-55
2021/09/29 06:35:12;;;;;;;23.20;18.20;;;;;;;;;;143732;661;46020;-55
2021/09/29 06:37:39;;;;;;;24.00;19.30;;;;;;;;;;143730;584;46020;-55
2021/09/29 06:40:12;;;;;;;23.35;20.15;;;;;;;;;;143727;713;46012;-55
2021/09/29 06:42:40;;;;;;;23.75;21.10;;;;;;;;;;143734;589;45021;-55
2021/09/29 06:45:08;;;;;;;36.72;29.42;;;;;;;;;;143730;571;46020;-55
2021/09/29 06:47:38;;;;;;;38.58;34.40;;;;;;;;;;143727;638;46021;-55
2021/09/29 06:50:06;;;;;;;34.92;27.50;;;;;;;;;;143723;564;47021;-55
2021/09/29 06:52:34;;;;;;;32.92;24.30;;;;;;;;;;143732;883;45022;-54
2021/09/29 06:55:01;;;;;;;36.60;24.10;;;;;;;;;;143728;580;46021;-55
2021/09/29 06:57:28;;;;;;;24.75;21.20;;;;;;;;;;143725;688;46021;-54
2021/09/29 06:59:56;;;;;;;28.17;20.67;;;;;;;;;;143726;579;45911;-55
2021/09/29 07:02:23;;;;;;;21.20;18.48;;;;;;;;;;143731;585;45021;-55
2021/09/29 07:04:50;;;;;;;23.80;18.77;;;;;;;;;;143729;567;46023;-55
2021/09/29 07:07:17;;;;;;;25.98;17.73;;;;;;;;;;143726;565;46917;-54
2021/09/29 07:09:44;;;;;;;23.73;17.23;;;;;;;;;;143725;612;46021;-55
2021/09/29 07:12:11;;;;;;;23.42;17.40;;;;;;;;;;143730;565;46021;-54
2021/09/29 07:14:38;;;;;;;19.90;14.87;;;;;;;;;;143730;702;46020;-55
2021/09/29 07:17:05;;;;;;;17.67;14.15;;;;;;;;;;143726;586;46021;-55
2021/09/29 07:19:33;;;;;;;15.40;13.35;;;;;;;;;;143727;590;46012;-55
2021/09/29 07:22:00;;;;;;;16.80;12.60;;;;;;;;;;143730;611;46010;-55
2021/09/29 07:24:27;;;;;;;15.20;12.73;;;;;;;;;;143726;624;46022;-55
2021/09/29 07:26:54;;;;;;;19.12;13.85;;;;;;;;;;143732;599;46918;-55
2021/09/29 07:29:21;;;;;;;18.77;12.48;;;;;;;;;;143727;578;45911;-55
2021/09/29 07:31:48;;;;;;;18.60;14.10;;;;;;;;;;143731;596;45020;-55
2021/09/29 07:34:15;;;;;;;14.63;12.45;;;;;;;;;;143728;646;46020;-55
2021/09/29 07:36:42;;;;;;;18.15;12.88;;;;;;;;;;143730;579;46020;-55
2021/09/29 07:39:09;;;;;;;16.37;12.45;;;;;;;;;;143727;609;46012;-54
2021/09/29 07:41:37;;;;;;;14.40;11.35;;;;;;;;;;143729;773;45021;-54
2021/09/29 07:44:06;;;;;;;14.02;10.30;;;;;;;;;;143727;566;46029;-54
2021/09/29 07:46:33;;;;;;;15.30;13.62;;;;;;;;;;143725;618;46020;-54
2021/09/29 07:49:00;;;;;;;18.00;13.50;;;;;;;;;;143726;577;46020;-54
2021/09/29 07:51:28;;;;;;;16.52;13.25;;;;;;;;;;143729;570;46010;-54
2021/09/29 07:53:55;;;;;;;14.55;11.15;;;;;;;;;;143727;589;46020;-55
2021/09/29 07:56:22;;;;;;;12.02;10.82;;;;;;;;;;143725;566;46021;-55
2021/09/29 07:58:49;;;;;;;13.07;11.73;;;;;;;;;;143728;589;45911;-55
2021/09/29 08:01:17;;;;;;;13.80;11.85;;;;;;;;;;143730;580;45020;-54
2021/09/29 08:03:45;;;;;;;13.80;11.90;;;;;;;;;;143725;585;47020;-54
2021/09/29 08:06:12;;;;;;;13.80;11.63;;;;;;;;;;143725;606;46020;-54
2021/09/29 08:08:39;;;;;;;12.18;10.95;;;;;;;;;;143728;595;45911;-55
2021/09/29 08:11:07;;;;;;;13.55;10.38;;;;;;;;;;143729;587;46012;-55
2021/09/29 08:13:34;;;;;;;10.82;9.70;;;;;;;;;;143727;640;47020;-54
2021/09/29 08:16:03;;;;;;;11.23;9.20;;;;;;;;;;143725;591;46020;-54
2021/09/29 08:18:30;;;;;;;13.38;9.15;;;;;;;;;;143726;564;45913;-54
2021/09/29 08:21:00;;;;;;;11.40;9.90;;;;;;;;;;143729;626;46010;-54
2021/09/29 08:23:34;;;;;;;10.43;9.32;;;;;;;;;;143728;589;46034;-55
2021/09/29 08:29:17;;;;;;;9.75;8.43;;;;;;;;;;143728;576;46020;-55
2021/09/29 08:35:05;;;;;;;9.45;7.55;;;;;;;;;;143725;592;46020;-55
2021/09/29 08:37:48;;;;;;;10.23;6.80;;;;;;;;;;143729;594;46032;-55
2021/09/29 08:40:22;;;;;;;8.82;6.65;;;;;;;;;;143728;700;46013;-55
2021/09/29 08:48:42;;;;;;;9.23;7.87;;;;;;;;;;143727;583;47021;-55
2021/09/29 08:54:24;;;;;;;12.80;10.57;;;;;;;;;;143722;575;49012;-54
2021/09/29 09:16:32;;;;;;;9.93;8.05;;;;;;;;;;143726;606;46019;-55
2021/09/29 09:19:05;;;;;;;10.93;8.70;;;;;;;;;;143724;577;48012;-57
2021/09/29 09:21:34;;;;;;;10.85;8.02;;;;;;;;;;143725;585;46918;-55
2021/09/29 09:24:01;;;;;;;11.85;7.80;;;;;;;;;;143726;570;48020;-56
2021/09/29 09:26:28;;;;;;;10.82;7.90;;;;;;;;;;143727;678;47010;-56
2021/09/29 09:29:10;;;;;;;9.80;7.37;;;;;;;;;;143727;565;46020;-56
2021/09/29 09:31:38;;;;;;;10.82;7.37;;;;;;;;;;143727;570;48020;-56
2021/09/29 09:34:07;;;;;;;10.38;6.90;;;;;;;;;;143728;606;46012;-56
2021/09/29 09:36:40;;;;;;;10.18;7.18;;;;;;;;;;143733;582;45020;-57
2021/09/29 09:39:13;;;;;;;8.82;7.28;;;;;;;;;;143723;603;49022;-57
2021/09/29 09:41:57;;;;;;;11.75;7.32;;;;;;;;;;143729;606;46919;-56
2021/09/29 09:44:35;;;;;;;10.27;7.15;;;;;;;;;;143726;582;46020;-57
2021/09/29 09:47:15;;;;;;;11.55;7.43;;;;;;;;;;143730;580;46021;-58
2021/09/29 09:49:50;;;;;;;10.65;6.82;;;;;;;;;;143727;607;46022;-58
2021/09/29 09:52:44;;;;;;;7.78;6.25;;;;;;;;;;143728;576;46020;-57
2021/09/29 09:55:16;;;;;;;10.23;6.60;;;;;;;;;;143727;595;46012;-57
2021/09/29 09:57:44;;;;;;;12.27;6.55;;;;;;;;;;143732;584;45020;-58
2021/09/29 10:00:18;;;;;;;11.38;7.70;;;;;;;;;;143726;607;46031;-57
2021/09/29 10:02:47;;;;;;;9.53;6.93;;;;;;;;;;143726;577;46013;-56
2021/09/29 10:05:16;;;;;;;8.20;7.12;;;;;;;;;;143727;573;46012;-57
2021/09/29 10:07:45;;;;;;;9.45;6.87;;;;;;;;;;143729;579;46020;-56
2021/09/29 10:10:22;;;;;;;9.02;7.40;;;;;;;;;;143729;581;46014;-57
2021/09/29 10:13:10;;;;;;;11.52;8.85;;;;;;;;;;143728;606;46020;-57
2021/09/29 10:27:53;;;;;;;11.65;7.62;;;;;;;;;;143726;619;46020;-55
2021/09/29 10:30:36;;;;;;;10.82;6.95;;;;;;;;;;143729;588;46019;-55
2021/09/29 10:33:05;;;;;;;12.98;8.00;;;;;;;;;;143729;573;46023;-55
2021/09/29 10:36:02;;;;;;;9.65;7.43;;;;;;;;;;143727;609;46035;-54
2021/09/29 10:41:26;;;;;;;18.92;7.55;;;;;;;;;;143758;576;45021;-54
2021/09/29 10:47:10;;;;;;;11.60;8.48;;;;;;;;;;143757;576;45013;-55
2021/09/29 10:49:55;;;;;;;13.95;9.23;;;;;;;;;;143756;575;45020;-54
2021/09/29 10:52:44;;;;;;;10.13;6.93;;;;;;;;;;143745;608;45020;-54
2021/09/29 11:09:51;;;;;;;14.13;7.50;;;;;;;;;;143755;572;45916;-54
2021/09/29 11:29:48;;;;;;;12.48;6.95;;;;;;;;;;143757;572;45020;-54
2021/09/29 11:32:33;;;;;;;15.45;6.85;;;;;;;;;;143756;640;45916;-53
2021/09/29 11:35:05;;;;;;;10.52;6.80;;;;;;;;;;143743;567;46020;-53
2021/09/29 12:07:58;;;;;;;13.15;6.45;;;;;;;;;;143730;596;46012;-53
2021/09/29 12:09:06;;;;;;;11.73;5.50;;;;;;;;;;143730;610;46014;-54
2021/09/29 12:11:46;;;;;;;9.32;5.68;;;;;;;;;;143731;589;46012;-54
2021/09/29 12:14:15;;;;;;;11.48;5.55;;;;;;;;;;143729;610;46020;-54
2021/09/29 12:16:42;;;;;;;12.10;5.50;;;;;;;;;;143729;584;46012;-54
2021/09/29 12:19:27;;;;;;;9.90;6.05;;;;;;;;;;143736;590;45918;-54
2021/09/29 12:21:57;;;;;;;9.48;5.37;;;;;;;;;;143731;585;46022;-54
2021/09/29 12:24:41;;;;;;;9.23;5.65;;;;;;;;;;143729;587;46019;-54
2021/09/29 12:27:08;;;;;;;14.43;6.05;;;;;;;;;;143729;627;46012;-54
2021/09/29 12:29:37;;;;;;;12.90;5.78;;;;;;;;;;143728;565;45912;-54
2021/09/29 12:32:32;;;;;;;14.82;5.80;;;;;;;;;;143731;569;46023;-54
2021/09/29 12:35:20;;;;;;;12.98;5.85;;;;;;;;;;143728;604;46020;-55
2021/09/29 12:38:13;;;;;;;10.60;5.35;;;;;;;;;;143728;596;46023;-55
2021/09/29 12:40:41;;;;;;;10.23;4.82;;;;;;;;;;143729;636;45910;-55
2021/09/29 12:43:14;;;;;;;11.23;6.00;;;;;;;;;;143730;615;46012;-55
2021/09/29 12:45:47;;;;;;;12.93;5.78;;;;;;;;;;143729;564;46019;-55
2021/09/29 12:48:16;;;;;;;10.13;5.17;;;;;;;;;;143729;628;46022;-55
2021/09/29 12:50:55;;;;;;;11.82;5.80;;;;;;;;;;143729;658;45912;-55
2021/09/29 12:56:17;;;;;;;9.90;5.12;;;;;;;;;;143730;571;46018;-55
2021/09/29 12:58:44;;;;;;;11.63;5.68;;;;;;;;;;143730;615;46022;-55
2021/09/29 13:01:11;;;;;;;15.55;5.75;;;;;;;;;;143729;620;46012;-55
2021/09/29 13:03:38;;;;;;;11.52;5.65;;;;;;;;;;143729;564;46010;-55
2021/09/29 13:06:05;;;;;;;10.02;5.45;;;;;;;;;;143732;580;46018;-55
2021/09/29 13:08:32;;;;;;;14.40;5.22;;;;;;;;;;143733;571;46023;-55
2021/09/29 13:11:00;;;;;;;11.60;5.85;;;;;;;;;;143731;592;46012;-55
2021/09/29 13:13:27;;;;;;;15.57;6.37;;;;;;;;;;143729;589;46022;-55
2021/09/29 13:15:58;;;;;;;11.77;6.37;;;;;;;;;;143731;574;46026;-55
2021/09/29 13:18:43;;;;;;;9.02;5.25;;;;;;;;;;143727;589;47918;-55
2021/09/29 13:21:16;;;;;;;9.18;5.43;;;;;;;;;;143728;581;46910;-55
2021/09/29 13:23:54;;;;;;;9.15;5.40;;;;;;;;;;143733;574;45023;-55
2021/09/29 13:37:19;;;;;;;10.23;5.47;;;;;;;;;;143732;583;47019;-56
2021/09/29 13:39:47;;;;;;;10.45;5.43;;;;;;;;;;143728;677;46919;-55
2021/09/29 13:42:15;;;;;;;17.52;5.82;;;;;;;;;;143730;582;45910;-55
2021/09/29 13:44:42;;;;;;;16.08;7.32;;;;;;;;;;143735;595;46022;-55
2021/09/29 13:47:09;;;;;;;13.62;5.78;;;;;;;;;;143728;598;46021;-55
2021/09/29 13:49:36;;;;;;;14.20;6.78;;;;;;;;;;143728;622;46022;-55
2021/09/29 13:52:05;;;;;;;14.23;6.75;;;;;;;;;;143729;569;46013;-55
2021/09/29 13:54:32;;;;;;;8.65;5.70;;;;;;;;;;143730;573;46023;-55
2021/09/29 13:57:10;;;;;;;10.98;6.18;;;;;;;;;;143727;637;46018;-55
2021/09/29 13:59:54;;;;;;;12.70;6.12;;;;;;;;;;143729;594;46919;-55
2021/09/29 14:33:04;;;;;;;;;;;;;;;;;;143734;980;46012;-55
2021/09/29 14:35:32;;;;;;;11.95;6.25;;;;;;;;;;143733;613;45920;-55
2021/09/29 14:37:59;;;;;;;9.63;5.40;;;;;;;;;;143734;581;45032;-55
2021/09/29 14:40:26;;;;;;;17.08;5.97;;;;;;;;;;143730;590;46018;-55
2021/09/29 14:42:53;;;;;;;11.50;5.75;;;;;;;;;;143732;571;46920;-55
2021/09/29 14:45:20;;;;;;;9.80;6.03;;;;;;;;;;143731;564;45913;-55
2021/09/29 14:47:48;;;;;;;11.50;6.18;;;;;;;;;;143732;639;45022;-55
2021/09/29 14:50:16;;;;;;;9.20;5.57;;;;;;;;;;143729;572;46018;-55
2021/09/29 14:52:43;;;;;;;11.25;6.28;;;;;;;;;;143730;581;46023;-55
2021/09/29 14:55:11;;;;;;;7.70;4.97;;;;;;;;;;143730;705;45912;-55
2021/09/29 14:57:38;;;;;;;10.57;5.50;;;;;;;;;;143737;607;45022;-55
2021/09/29 15:00:06;;;;;;;11.12;6.30;;;;;;;;;;143732;575;46021;-55
2021/09/29 15:02:33;;;;;;;8.38;5.03;;;;;;;;;;143732;564;46022;-55
2021/09/29 15:05:00;;;;;;;8.55;5.82;;;;;;;;;;143731;582;45912;-55
2021/09/29 15:07:27;;;;;;;10.32;5.93;;;;;;;;;;143728;585;46023;-55
2021/09/29 15:09:54;;;;;;;8.27;5.97;;;;;;;;;;143728;577;46020;-55
2021/09/29 15:12:21;;;;;;;9.48;5.80;;;;;;;;;;143732;574;46920;-55
2021/09/29 15:15:13;;;;;;;10.55;5.85;;;;;;;;;;143730;572;45912;-55
2021/09/29 15:20:57;;;;;;;9.15;5.75;;;;;;;;;;143732;605;46013;-55
2021/09/29 15:23:35;;;;;;;;;;;;;;;;;;143736;979;46012;-55
2021/09/29 15:31:49;;;;;;;26.20;16.60;;;;;;;;;;143729;577;46018;-55
2021/09/29 15:48:06;;;;;;;8.20;5.22;;;;;;;;;;143727;566;46018;-56
2021/09/29 15:56:13;;;;;;;7.32;5.37;;;;;;;;;;143725;599;46022;-54
2021/09/29 15:58:59;;;;;;;13.60;7.43;;;;;;;;;;143727;592;45910;-54
2021/09/29 16:01:37;;;;;;;10.30;7.05;;;;;;;;;;143727;569;46022;-55
2021/09/29 16:04:28;;;;;;;11.27;5.70;;;;;;;;;;143727;578;46020;-55
2021/09/29 16:07:14;;;;;;;10.10;5.70;;;;;;;;;;143725;585;46919;-54
2021/09/29 16:13:00;;;;;;;11.30;5.75;;;;;;;;;;143729;564;46023;-54
2021/09/29 16:18:16;;;;;;;13.43;6.37;;;;;;;;;;143733;569;46010;-55
2021/09/29 16:32:13;;;;;;;10.32;6.65;;;;;;;;;;143728;582;46012;-54
2021/09/29 16:35:00;;;;;;;7.75;5.55;;;;;;;;;;143729;573;45022;-54
2021/09/29 16:37:28;;;;;;;8.23;6.28;;;;;;;;;;143728;611;46018;-55
2021/09/29 16:39:55;;;;;;;9.88;5.62;;;;;;;;;;143730;577;46022;-54
2021/09/29 16:42:23;;;;;;;10.35;6.53;;;;;;;;;;143726;570;46018;-54
2021/09/29 16:44:50;;;;;;;9.45;6.20;;;;;;;;;;143731;588;45023;-55
2021/09/29 16:47:17;;;;;;;11.48;6.30;;;;;;;;;;143726;588;46020;-55
2021/09/29 16:49:44;;;;;;;13.77;6.93;;;;;;;;;;143732;572;46012;-55
2021/09/29 16:52:27;;;;;;;11.98;6.72;;;;;;;;;;143727;601;46012;-55
2021/09/29 16:54:56;;;;;;;13.13;6.55;;;;;;;;;;143727;571;46022;-55
2021/09/29 16:57:38;;;;;;;12.57;6.65;;;;;;;;;;143728;580;46019;-55
2021/09/29 17:00:22;;;;;;;15.60;6.40;;;;;;;;;;143729;610;46023;-54
2021/09/29 17:02:48;;;;;;;11.80;5.93;;;;;;;;;;143727;576;45913;-55
2021/09/29 17:05:16;;;;;;;12.90;6.82;;;;;;;;;;143730;605;45023;-54
2021/09/29 17:07:43;;;;;;;9.52;6.30;;;;;;;;;;143728;596;46018;-54
2021/09/29 17:10:13;;;;;;;10.50;6.07;;;;;;;;;;143727;564;46920;-54
2021/09/29 17:12:43;;;;;;;9.10;6.10;;;;;;;;;;143727;643;45912;-54
2021/09/29 17:15:11;;;;;;;14.70;7.20;;;;;;;;;;143730;620;45027;-55
2021/09/29 17:17:41;;;;;;;10.52;6.75;;;;;;;;;;143726;564;47018;-55
2021/09/29 17:20:09;;;;;;;8.93;6.28;;;;;;;;;;143729;578;46920;-55
2021/09/29 17:22:38;;;;;;;11.38;6.87;;;;;;;;;;143725;581;46014;-55
2021/09/29 17:25:06;;;;;;;11.35;7.40;;;;;;;;;;143730;614;45040;-54
2021/09/29 17:27:34;;;;;;;8.93;6.20;;;;;;;;;;143727;623;46019;-55
2021/09/29 17:30:02;;;;;;;11.80;6.45;;;;;;;;;;143729;635;47921;-54
2021/09/29 17:35:32;;;;;;;11.00;6.70;;;;;;;;;;143729;589;45024;-55
2021/09/29 17:54:41;;;;;;;14.02;7.10;;;;;;;;;;143756;569;45018;-54
2021/09/29 17:57:08;;;;;;;12.15;7.65;;;;;;;;;;143757;587;45012;-55
2021/09/29 17:59:38;;;;;;;15.38;7.70;;;;;;;;;;143755;623;45018;-54
2021/09/29 18:02:10;;;;;;;9.27;5.75;;;;;;;;;;143753;604;45022;-55
2021/09/29 18:04:39;;;;;;;14.85;7.12;;;;;;;;;;143756;627;45013;-55
2021/09/29 18:07:13;;;;;;;12.48;6.40;;;;;;;;;;143755;602;45012;-55
2021/09/29 18:09:40;;;;;;;8.73;6.78;;;;;;;;;;143755;627;45018;-55
2021/09/29 18:12:07;;;;;;;11.38;6.70;;;;;;;;;;143753;579;46023;-55
2021/09/29 18:14:34;;;;;;;11.52;6.90;;;;;;;;;;143746;571;45018;-54
2021/09/29 18:17:02;;;;;;;11.63;7.12;;;;;;;;;;143755;587;45022;-54
2021/09/29 18:19:29;;;;;;;10.48;6.55;;;;;;;;;;143756;623;45019;-55
2021/09/29 18:21:56;;;;;;;10.50;7.15;;;;;;;;;;143753;613;45919;-55
2021/09/29 18:24:25;;;;;;;13.23;6.97;;;;;;;;;;143755;597;45910;-54
2021/09/29 18:26:53;;;;;;;10.63;6.50;;;;;;;;;;143754;580;45022;-55